Time;durP1;ratioP1;P1;durP2;ratioP2;P2;SDS_P1;SDS_P2;PMS_P1;PMS_P2;Temp;Humidity;BMP_temperature;BMP_pressure;BME280_temperature;BME280_humidity;BME280_pressure;Samples;Min_cycle;Max_cycle;Signal;HPM_P1;HPM_P2
2022/05/02 00:00:13;;;;;;;16.75;10.40;;;;;;;11.88;43.27;102073.34;4921934;28;115148;-73
2022/05/02 00:02:40;;;;;;;18.83;10.90;;;;;;;11.84;43.41;102071.66;4936568;28;113949;-73
2022/05/02 00:05:08;;;;;;;17.80;10.63;;;;;;;11.80;43.52;102069.16;4938048;28;123416;-73
2022/05/02 00:07:35;;;;;;;19.98;11.07;;;;;;;11.75;43.60;102060.47;4930565;28;122866;-73
2022/05/02 00:10:05;;;;;;;17.73;10.77;;;;;;;11.71;43.36;102062.34;4942673;28;114982;-73
2022/05/02 00:12:32;;;;;;;21.00;10.70;;;;;;;11.67;43.37;102063.34;4922986;28;113840;-72
2022/05/02 00:14:59;;;;;;;18.17;10.55;;;;;;;11.64;43.46;102058.13;4949614;28;123947;-74
2022/05/02 00:20:12;;;;;;;19.30;10.65;;;;;;;11.54;43.62;102064.63;4926965;28;114669;-72
2022/05/02 00:22:40;;;;;;;19.52;10.98;;;;;;;11.49;43.83;102065.66;4916319;28;114715;-73
2022/05/02 00:25:08;;;;;;;18.83;11.23;;;;;;;11.43;44.02;102054.34;4912770;28;123478;-73
2022/05/02 00:27:38;;;;;;;20.45;10.90;;;;;;;11.36;43.95;102061.63;4937996;28;124639;-73
2022/05/02 00:30:07;;;;;;;21.48;11.25;;;;;;;11.33;44.22;102047.56;4955201;28;114527;-73
2022/05/02 00:32:34;;;;;;;18.38;10.82;;;;;;;11.27;44.11;102044.19;4942299;28;114206;-74
2022/05/02 00:35:03;;;;;;;20.52;11.30;;;;;;;11.23;44.29;102041.66;4936625;28;123988;-73
2022/05/02 00:37:30;;;;;;;20.02;10.73;;;;;;;11.20;43.98;102041.75;4939587;28;124332;-74
2022/05/02 00:39:57;;;;;;;19.02;10.95;;;;;;;11.16;44.05;102040.09;4933263;28;113329;-73
2022/05/02 00:42:25;;;;;;;19.95;11.70;;;;;;;11.13;44.29;102040.16;4925698;28;113902;-74
2022/05/02 00:44:52;;;;;;;18.55;11.10;;;;;;;11.09;44.48;102036.72;4943944;28;124863;-73
2022/05/02 00:47:20;;;;;;;19.02;10.95;;;;;;;11.06;44.46;102035.03;4943446;28;123801;-74
2022/05/02 00:49:48;;;;;;;19.13;11.40;;;;;;;11.02;44.68;102037.81;4926144;28;114312;-73
2022/05/02 00:52:17;;;;;;;19.73;11.15;;;;;;;10.98;44.62;102036.16;4922894;28;114957;-73
2022/05/02 00:54:45;;;;;;;20.42;11.20;;;;;;;10.93;45.01;102043.38;4920237;28;123164;-73
2022/05/02 00:57:15;;;;;;;18.75;11.45;;;;;;;10.88;44.70;102035.53;4940134;28;123484;-74
2022/05/02 00:59:42;;;;;;;18.50;10.93;;;;;;;10.83;44.95;102034.78;4940704;28;113579;-72
2022/05/02 01:02:13;;;;;;;20.25;11.70;;;;;;;10.79;45.20;102030.50;4943860;28;114130;-75
2022/05/02 01:04:42;;;;;;;20.13;12.13;;;;;;;10.76;44.94;102035.91;4922609;28;123934;-74
2022/05/02 01:07:11;;;;;;;19.20;12.20;;;;;;;10.71;45.21;102028.91;4938569;28;124007;-75
2022/05/02 01:09:49;;;;;;;20.33;12.07;;;;;;;10.68;45.27;102031.66;4955762;28;114273;-73
2022/05/02 01:12:22;;;;;;;20.20;11.88;;;;;;;10.64;45.36;102032.66;4941906;28;113964;-73
2022/05/02 01:14:51;;;;;;;20.98;11.18;;;;;;;10.62;45.54;102034.44;4944567;28;123845;-75
2022/05/02 01:17:19;;;;;;;21.13;12.32;;;;;;;10.61;45.47;102038.03;4922027;28;122731;-74
2022/05/02 01:19:47;;;;;;;21.17;12.23;;;;;;;10.60;45.60;102036.28;4916232;28;113624;-74
2022/05/02 01:22:14;;;;;;;21.23;11.85;;;;;;;10.57;45.86;102030.19;4940116;28;114319;-73
2022/05/02 01:24:44;;;;;;;21.83;12.73;;;;;;;10.55;45.64;102027.59;4939989;28;123753;-75
2022/05/02 01:27:13;;;;;;;20.85;12.13;;;;;;;10.52;45.88;102027.66;4939672;28;125123;-74
2022/05/02 01:29:42;;;;;;;22.15;12.75;;;;;;;10.50;45.73;102029.50;4934451;28;115060;-74
2022/05/02 01:32:11;;;;;;;20.67;12.10;;;;;;;10.48;46.08;102028.66;4934372;28;114008;-74
2022/05/02 01:34:42;;;;;;;22.23;12.95;;;;;;;10.46;45.90;102027.84;4934077;28;124646;-74
2022/05/02 01:37:11;;;;;;;20.20;11.52;;;;;;;10.42;46.09;102021.75;4937883;28;123697;-75
2022/05/02 01:39:39;;;;;;;20.20;12.32;;;;;;;10.41;46.46;102029.72;4954792;28;114481;-73
2022/05/02 01:42:08;;;;;;;22.50;11.55;;;;;;;10.39;46.41;102018.28;4940297;28;114964;-75
2022/05/02 01:44:36;;;;;;;20.48;11.48;;;;;;;10.37;46.43;102020.97;4948429;28;123824;-75
2022/05/02 01:47:04;;;;;;;21.85;11.88;;;;;;;10.37;46.41;102020.13;4948426;28;123724;-74
2022/05/02 01:49:31;;;;;;;21.73;12.40;;;;;;;10.38;46.38;102019.19;4933726;28;114205;-73
2022/05/02 01:51:58;;;;;;;20.95;11.70;;;;;;;10.37;46.59;102022.75;4940195;28;113643;-75
2022/05/02 01:54:26;;;;;;;20.70;11.68;;;;;;;10.37;46.81;102022.75;4932840;28;123627;-74
2022/05/02 01:56:53;;;;;;;22.05;11.98;;;;;;;10.34;46.88;102013.13;4944732;28;123779;-74
2022/05/02 01:59:20;;;;;;;19.92;11.50;;;;;;;10.31;46.62;102019.34;4933511;28;114278;-75
2022/05/02 02:01:47;;;;;;;23.92;12.10;;;;;;;10.31;46.73;102022.00;4940296;28;113231;-75
2022/05/02 02:07:00;;;;;;;19.80;11.98;;;;;;;10.28;46.65;102018.53;4958741;28;124309;-74
2022/05/02 02:09:27;;;;;;;22.88;12.18;;;;;;;10.25;46.67;102014.19;4950912;28;114029;-75
2022/05/02 02:11:55;;;;;;;20.17;11.93;;;;;;;10.25;47.05;102021.25;4941734;28;114190;-74
2022/05/02 02:14:22;;;;;;;18.67;10.50;;;;;;;10.22;47.07;102019.53;4951267;28;124134;-74
2022/05/02 02:16:49;;;;;;;18.92;11.20;;;;;;;10.20;46.81;102016.06;4942671;28;122876;-75
2022/05/02 02:19:16;;;;;;;20.63;11.57;;;;;;;10.17;46.81;102016.16;4937110;28;114890;-75
2022/05/02 02:21:43;;;;;;;20.48;11.85;;;;;;;10.14;47.03;102010.94;4947136;28;113274;-75
2022/05/02 02:24:10;;;;;;;22.45;12.10;;;;;;;10.12;47.03;102012.75;4919667;28;123542;-74
2022/05/02 02:26:39;;;;;;;19.77;11.88;;;;;;;10.09;47.21;102007.53;4944951;28;122824;-74
2022/05/02 02:29:06;;;;;;;20.23;11.68;;;;;;;10.05;47.07;102011.16;4933421;28;114974;-76
2022/05/02 02:31:33;;;;;;;20.00;11.43;;;;;;;10.03;47.10;102007.66;4926931;28;113994;-74
2022/05/02 02:34:00;;;;;;;22.15;11.82;;;;;;;10.01;47.07;102012.13;4938714;28;123978;-75
2022/05/02 02:36:27;;;;;;;23.10;12.15;;;;;;;9.99;47.15;102011.31;4935896;28;123951;-76
2022/05/02 02:38:54;;;;;;;21.30;11.82;;;;;;;9.97;47.32;102007.81;4915972;28;114736;-73
2022/05/02 02:41:21;;;;;;;21.38;11.18;;;;;;;9.96;47.18;102011.38;4932543;28;113063;-75
2022/05/02 02:43:49;;;;;;;21.92;11.48;;;;;;;9.93;47.41;102001.75;4935463;28;124583;-73
2022/05/02 02:46:16;;;;;;;21.17;11.40;;;;;;;9.89;47.34;101990.34;4942059;28;124626;-73
2022/05/02 02:48:43;;;;;;;21.58;12.13;;;;;;;9.87;47.32;102002.75;4932742;28;114488;-73
2022/05/02 02:51:10;;;;;;;21.00;11.68;;;;;;;9.85;47.25;101993.97;4943580;28;113888;-74
2022/05/02 02:53:37;;;;;;;21.48;11.63;;;;;;;9.84;47.54;101986.94;4940536;28;124830;-73
2022/05/02 02:56:04;;;;;;;21.20;11.20;;;;;;;9.80;47.38;101990.56;4936077;28;123709;-75
2022/05/02 02:58:31;;;;;;;21.52;11.70;;;;;;;9.79;47.34;101982.66;4953651;28;114730;-73
2022/05/02 03:00:59;;;;;;;20.98;11.35;;;;;;;9.76;47.20;101983.59;4946472;28;112942;-72
2022/05/02 03:03:27;;;;;;;24.63;12.27;;;;;;;9.73;47.37;101978.38;4935977;28;124369;-73
2022/05/02 03:06:04;;;;;;;21.92;11.55;;;;;;;9.69;47.41;101976.72;4941454;28;124379;-73
2022/05/02 03:08:34;;;;;;;21.10;11.50;;;;;;;9.66;47.47;101982.06;4934625;28;114132;-74
2022/05/02 03:11:03;;;;;;;21.50;11.77;;;;;;;9.62;47.58;101980.41;4926490;28;112950;-73
2022/05/02 03:13:30;;;;;;;21.67;11.10;;;;;;;9.60;47.73;101987.50;4920249;28;123992;-74
2022/05/02 03:15:57;;;;;;;21.52;12.02;;;;;;;9.56;47.60;101976.13;4939151;28;123960;-74
2022/05/02 03:18:24;;;;;;;25.40;12.55;;;;;;;9.52;47.81;101977.97;4930567;28;114419;-75
2022/05/02 03:20:52;;;;;;;21.02;11.60;;;;;;;9.49;47.66;101980.69;4951732;28;115156;-74
2022/05/02 03:23:20;;;;;;;22.90;12.10;;;;;;;9.46;47.96;101975.47;4939447;28;123816;-74
2022/05/02 03:25:47;;;;;;;20.30;11.40;;;;;;;9.45;47.56;101979.00;4955713;28;123652;-74
2022/05/02 03:28:15;;;;;;;24.17;12.50;;;;;;;9.44;47.87;101982.56;4935762;28;114713;-73
2022/05/02 03:30:42;;;;;;;21.33;11.63;;;;;;;9.42;47.74;101971.16;4940159;28;113504;-74
2022/05/02 03:33:09;;;;;;;21.58;12.23;;;;;;;9.40;47.86;101975.59;4935873;28;123755;-74
2022/05/02 03:35:36;;;;;;;19.55;11.85;;;;;;;9.37;47.89;101975.66;4941962;28;124131;-74
2022/05/02 03:38:03;;;;;;;21.75;11.40;;;;;;;9.35;48.13;101980.97;4942138;28;113403;-73
2022/05/02 03:40:30;;;;;;;20.10;11.77;;;;;;;9.34;48.08;101981.00;4921998;28;112659;-74
2022/05/02 03:42:57;;;;;;;20.10;11.98;;;;;;;9.32;48.03;101969.59;4936236;28;124548;-76
2022/05/02 03:45:25;;;;;;;21.40;11.45;;;;;;;9.29;47.93;101972.31;4920171;28;123073;-75
2022/05/02 03:47:52;;;;;;;20.45;11.30;;;;;;;9.27;48.17;101968.84;4951400;28;114128;-74
2022/05/02 03:50:19;;;;;;;19.50;11.65;;;;;;;9.24;47.92;101976.81;4937573;28;113673;-76
2022/05/02 03:52:53;;;;;;;20.38;11.38;;;;;;;9.21;48.10;101974.25;4917068;28;124055;-76
2022/05/02 03:55:21;;;;;;;22.50;12.05;;;;;;;9.18;48.02;101969.03;4950463;28;125207;-75
2022/05/02 03:57:48;;;;;;;22.58;11.63;;;;;;;9.15;48.02;101964.66;4937535;28;113049;-75
2022/05/02 04:00:15;;;;;;;21.80;11.50;;;;;;;9.12;48.36;101976.19;4920244;28;113304;-73
2022/05/02 04:02:49;;;;;;;24.17;12.00;;;;;;;9.09;48.26;101970.94;4935817;28;123981;-75
2022/05/02 04:05:16;;;;;;;24.88;12.30;;;;;;;9.04;48.09;101967.56;4943150;28;124358;-77
2022/05/02 04:07:43;;;;;;;24.90;12.07;;;;;;;9.02;48.28;101979.91;4929052;28;115500;-75
2022/05/02 04:10:10;;;;;;;21.95;12.40;;;;;;;8.98;48.77;101978.22;4931568;28;114754;-75
2022/05/02 04:12:38;;;;;;;23.48;12.07;;;;;;;8.96;48.71;101985.31;4944995;28;122697;-76
2022/05/02 04:15:09;;;;;;;37.03;12.13;;;;;;;8.93;48.54;101980.97;4935781;28;124247;-76
2022/05/02 04:17:40;;;;;;;20.45;11.60;;;;;;;8.91;48.55;101976.59;4931073;28;114005;-74
2022/05/02 04:20:08;;;;;;;21.27;11.93;;;;;;;8.88;48.56;101981.97;4916912;28;114492;-76
2022/05/02 04:22:37;;;;;;;20.95;12.18;;;;;;;8.86;48.48;101979.34;4929667;28;124783;-75
2022/05/02 04:25:05;;;;;;;23.30;12.48;;;;;;;8.85;48.78;101971.44;4932934;28;123807;-76
2022/05/02 04:27:32;;;;;;;23.83;12.23;;;;;;;8.84;48.85;101975.00;4930422;28;114189;-73
2022/05/02 04:30:00;;;;;;;25.95;12.98;;;;;;;8.82;48.65;101976.81;4920315;28;114761;-74
2022/05/02 04:32:27;;;;;;;20.77;11.60;;;;;;;8.82;49.10;101982.97;4914621;28;124727;-73
2022/05/02 04:34:55;;;;;;;27.00;12.88;;;;;;;8.83;48.94;101973.25;4931740;28;123563;-74
2022/05/02 04:37:23;;;;;;;22.08;12.75;;;;;;;8.82;48.80;101971.53;4931276;28;114225;-74
2022/05/02 04:39:50;;;;;;;22.90;12.10;;;;;;;8.83;48.83;101973.25;4928851;28;113282;-74
2022/05/02 04:42:18;;;;;;;23.42;12.55;;;;;;;8.81;49.36;101975.06;4932120;28;124210;-76
2022/05/02 04:44:45;;;;;;;26.08;12.15;;;;;;;8.81;48.95;101969.78;4935895;28;124202;-73
2022/05/02 04:47:13;;;;;;;24.48;13.07;;;;;;;8.83;49.16;101967.97;4935341;28;114110;-75
2022/05/02 04:49:40;;;;;;;24.95;13.35;;;;;;;8.84;49.16;101969.72;4953319;28;112969;-75
2022/05/02 04:52:07;;;;;;;25.50;13.77;;;;;;;8.86;49.49;101970.56;4937121;28;123971;-74
2022/05/02 04:54:34;;;;;;;25.45;14.30;;;;;;;8.88;49.35;101974.03;4929522;28;124522;-75
2022/05/02 04:57:01;;;;;;;27.10;14.23;;;;;;;8.89;49.54;101973.13;4933802;28;116063;-74
2022/05/02 04:59:30;;;;;;;23.38;13.50;;;;;;;8.91;49.40;101971.31;4931876;28;114661;-75
2022/05/02 05:01:58;;;;;;;24.77;13.80;;;;;;;8.92;49.43;101978.34;4933364;28;123382;-74
2022/05/02 05:04:26;;;;;;;24.42;13.48;;;;;;;8.96;49.42;101985.31;4937204;28;124507;-74
2022/05/02 05:06:53;;;;;;;28.25;14.02;;;;;;;8.98;50.01;101983.50;4929411;28;114373;-74
2022/05/02 05:09:20;;;;;;;27.05;13.90;;;;;;;9.00;49.81;101987.00;4933625;28;112966;-73
2022/05/02 05:11:53;;;;;;;26.92;14.02;;;;;;;9.03;50.28;101981.66;4929111;28;124296;-76
2022/05/02 05:17:56;;;;;;;27.17;13.82;;;;;;;9.13;49.92;101983.19;4936361;28;114125;-75
2022/05/02 05:20:35;;;;;;;30.30;14.65;;;;;;;9.19;50.27;101986.63;4937234;28;114098;-76
2022/05/02 05:23:09;;;;;;;27.55;15.60;;;;;;;9.24;50.25;101985.63;4937505;28;123911;-75
2022/05/02 05:25:47;;;;;;;29.45;15.45;;;;;;;9.31;50.42;101986.38;4936406;28;122897;-73
2022/05/02 05:28:53;;;;;;;31.50;16.25;;;;;;;9.37;50.28;101983.59;4939860;28;113261;-75
2022/05/02 05:31:33;;;;;;;28.13;15.20;;;;;;;9.46;50.29;101986.03;4955231;28;114970;-74
2022/05/02 05:34:08;;;;;;;28.30;15.52;;;;;;;9.52;50.34;101988.53;4933682;28;123565;-74
2022/05/02 05:36:47;;;;;;;29.45;15.32;;;;;;;9.60;50.28;101979.56;4935680;28;124136;-74
2022/05/02 05:39:32;;;;;;;31.02;16.13;;;;;;;9.69;50.65;101987.28;4953973;28;114473;-75
2022/05/02 05:42:11;;;;;;;29.73;15.53;;;;;;;9.78;50.65;101981.78;4936755;28;114460;-74
2022/05/02 05:45:03;;;;;;;32.22;16.25;;;;;;;9.87;50.50;101981.59;4946696;28;123778;-74
2022/05/02 05:48:01;;;;;;;27.13;15.73;;;;;;;9.98;50.75;101983.09;4925154;28;124953;-77
2022/05/02 05:50:36;;;;;;;29.30;15.20;;;;;;;10.07;51.00;101988.16;4942568;28;114526;-77
2022/05/02 05:53:56;;;;;;;30.17;15.82;;;;;;;10.18;51.05;101991.41;4938128;28;115006;-77
2022/05/02 05:56:55;;;;;;;25.75;14.38;;;;;;;10.29;50.78;101994.66;4922092;28;124000;-75
2022/05/02 05:59:56;;;;;;;26.70;15.43;;;;;;;10.37;50.80;101991.00;4934721;28;124285;-76
2022/05/02 06:02:37;;;;;;;28.42;16.20;;;;;;;10.46;50.77;101988.09;4953966;28;114140;-76
2022/05/02 06:05:06;;;;;;;29.08;15.50;;;;;;;10.55;50.81;101990.50;4942365;28;114864;-74
2022/05/02 06:07:34;;;;;;;25.70;15.55;;;;;;;10.64;51.17;101990.28;4956719;28;124059;-75
2022/05/02 06:10:03;;;;;;;26.85;15.15;;;;;;;10.71;51.18;101986.50;4940305;28;123926;-74
2022/05/02 06:12:31;;;;;;;26.90;15.27;;;;;;;10.80;51.25;101989.84;4924462;28;113731;-74
2022/05/02 06:20:39;;;;;;;26.63;14.60;;;;;;;11.08;51.37;101979.34;4918876;28;123059;-73
2022/05/02 06:23:13;;;;;;;28.10;15.40;;;;;;;11.20;51.63;101988.72;4932008;28;114448;-73
2022/05/02 06:25:43;;;;;;;24.33;15.05;;;;;;;11.33;51.31;101984.78;4948408;28;113598;-73
2022/05/02 06:28:10;;;;;;;25.98;15.18;;;;;;;11.46;51.24;101988.78;4924004;28;124502;-73
2022/05/02 06:30:41;;;;;;;24.67;14.88;;;;;;;11.60;51.28;101987.50;4932881;28;123312;-73
2022/05/02 06:33:11;;;;;;;26.08;14.82;;;;;;;11.73;51.54;101983.53;4948715;28;114253;-73
2022/05/02 06:35:54;;;;;;;29.20;14.40;;;;;;;11.88;51.29;101983.09;4939811;28;113469;-73
2022/05/02 06:38:46;;;;;;;24.38;13.93;;;;;;;12.04;51.35;101988.78;4950537;28;124515;-73
2022/05/02 06:41:44;;;;;;;28.65;13.70;;;;;;;12.25;51.33;101987.19;4934216;28;122852;-73
2022/05/02 06:44:46;;;;;;;26.02;14.07;;;;;;;12.49;51.17;101995.25;4941490;28;114604;-74
2022/05/02 06:47:32;;;;;;;21.13;13.20;;;;;;;12.73;51.11;101992.66;4934320;28;114983;-73
2022/05/02 06:50:03;;;;;;;20.85;13.15;;;;;;;12.95;51.08;101993.59;4951757;28;124199;-73
2022/05/02 06:52:45;;;;;;;21.42;12.77;;;;;;;13.19;51.09;101986.53;4947921;28;124811;-73
2022/05/02 06:55:36;;;;;;;19.33;11.70;;;;;;;13.44;50.75;101991.78;4933053;28;114787;-73
2022/05/02 06:58:31;;;;;;;17.02;10.98;;;;;;;13.71;50.57;101983.69;4947979;28;114462;-73
2022/05/02 07:01:10;;;;;;;18.73;10.83;;;;;;;13.96;50.12;101977.34;4931393;28;124113;-73
2022/05/02 07:04:12;;;;;;;15.32;10.68;;;;;;;14.22;50.14;101981.56;4928777;28;123739;-73
2022/05/02 07:06:55;;;;;;;14.30;8.73;;;;;;;14.49;49.42;101987.53;4932569;28;115957;-73
2022/05/02 07:09:44;;;;;;;17.15;9.70;;;;;;;14.73;48.93;101984.75;4951568;28;113508;-73
2022/05/02 07:12:17;;;;;;;12.50;8.75;;;;;;;14.91;48.36;101978.59;4916474;28;123708;-74
2022/05/02 07:15:05;;;;;;;13.77;8.68;;;;;;;15.11;47.99;101980.38;4950159;28;124288;-73
2022/05/02 07:17:47;;;;;;;12.70;7.95;;;;;;;15.32;47.72;101983.84;4952162;28;115047;-74
2022/05/02 07:20:27;;;;;;;12.20;8.15;;;;;;;15.50;47.43;101975.91;4950720;28;114093;-73
2022/05/02 07:23:00;;;;;;;10.75;7.55;;;;;;;15.67;46.89;101984.00;4932360;28;123374;-73
2022/05/02 07:25:28;;;;;;;14.43;7.80;;;;;;;15.81;46.45;101979.81;4947325;28;123892;-73
2022/05/02 07:28:25;;;;;;;10.98;7.40;;;;;;;15.95;45.89;101977.31;4913096;28;115045;-72
2022/05/02 07:30:56;;;;;;;9.20;6.43;;;;;;;16.09;45.17;101984.66;4905834;28;113954;-73
2022/05/02 07:33:35;;;;;;;11.18;6.80;;;;;;;16.19;44.79;101985.06;4933974;28;122838;-74
2022/05/02 07:36:04;;;;;;;10.88;6.68;;;;;;;16.31;44.92;101982.66;4936342;28;123685;-74
2022/05/02 07:38:35;;;;;;;10.43;6.85;;;;;;;16.45;44.57;101983.75;4939061;28;115251;-74
2022/05/02 07:41:22;;;;;;;11.32;6.25;;;;;;;16.57;44.12;101979.56;4938299;28;114822;-74
2022/05/02 07:43:52;;;;;;;9.77;6.30;;;;;;;16.69;43.79;101984.28;4923719;28;124376;-73
2022/05/02 07:46:25;;;;;;;11.07;6.20;;;;;;;16.78;43.58;101982.91;4950146;28;122819;-74
2022/05/02 07:48:53;;;;;;;11.20;6.82;;;;;;;16.85;43.30;101985.22;4931277;28;113747;-74
2022/05/02 07:51:19;;;;;;;11.43;6.13;;;;;;;16.92;43.10;101986.63;4930661;28;114044;-74
2022/05/02 07:53:50;;;;;;;12.82;6.85;;;;;;;17.01;42.78;101979.91;4940725;28;124620;-74
2022/05/02 07:56:21;;;;;;;11.60;6.93;;;;;;;17.11;42.95;101985.63;4944129;28;123437;-73
2022/05/02 07:58:51;;;;;;;12.85;6.35;;;;;;;17.22;42.65;101980.56;4964758;28;113664;-74
2022/05/02 08:01:20;;;;;;;10.20;6.50;;;;;;;17.34;42.34;101980.84;4917520;28;115380;-74
2022/05/02 08:03:48;;;;;;;14.20;7.05;;;;;;;17.41;42.47;101980.41;4938898;28;124330;-74
2022/05/02 08:06:45;;;;;;;10.80;7.18;;;;;;;17.52;42.07;101985.16;4933876;28;124157;-74
2022/05/02 08:09:31;;;;;;;11.48;6.53;;;;;;;17.62;42.27;101986.38;4943416;28;113797;-73
2022/05/02 08:12:32;;;;;;;7.80;5.38;;;;;;;17.76;42.10;101976.66;4948765;28;113307;-74
2022/05/02 08:15:08;;;;;;;8.25;5.43;;;;;;;17.89;41.82;101977.72;4929839;28;123772;-74
2022/05/02 08:18:19;;;;;;;9.35;5.40;;;;;;;18.02;41.71;101984.09;4944604;28;123765;-74
2022/05/02 08:20:50;;;;;;;9.55;5.00;;;;;;;18.14;41.53;101977.19;4943990;28;114325;-73
2022/05/02 08:30:06;;;;;;;5.65;3.92;;;;;;;18.37;40.69;101973.13;4949366;28;122989;-73
2022/05/02 08:32:43;;;;;;;5.93;4.10;;;;;;;18.46;40.31;101967.22;4964230;28;114528;-73
2022/05/02 08:35:27;;;;;;;7.40;4.57;;;;;;;18.57;40.02;101963.00;4964714;28;115217;-73
2022/05/02 08:38:17;;;;;;;6.90;4.00;;;;;;;18.67;39.56;101964.19;4947815;28;123222;-72
2022/05/02 08:41:08;;;;;;;7.35;5.00;;;;;;;18.75;39.48;101961.00;4931076;28;123123;-73
2022/05/02 08:43:57;;;;;;;7.97;4.75;;;;;;;18.81;39.19;101960.66;4949500;28;114419;-73
2022/05/02 08:46:35;;;;;;;7.07;4.57;;;;;;;18.88;39.15;101961.16;4932583;28;113124;-73
2022/05/02 08:49:35;;;;;;;6.35;4.40;;;;;;;18.96;39.19;101958.84;4951871;28;124170;-74
2022/05/02 08:52:44;;;;;;;7.00;3.92;;;;;;;19.08;38.91;101968.81;4950227;28;123668;-74
2022/05/02 08:55:37;;;;;;;6.70;4.43;;;;;;;19.19;38.69;101966.31;4968025;28;114309;-74
2022/05/02 08:58:26;;;;;;;7.68;4.68;;;;;;;19.26;38.62;101959.56;4941708;28;113567;-73
2022/05/02 09:01:15;;;;;;;8.43;4.93;;;;;;;19.34;39.04;101958.22;4946604;28;123937;-74
2022/05/02 09:04:15;;;;;;;6.90;4.47;;;;;;;19.44;38.63;101954.00;4937656;28;123566;-73
2022/05/02 09:07:20;;;;;;;8.60;5.22;;;;;;;19.50;38.07;101953.59;4965639;28;114297;-74
2022/05/02 09:09:59;;;;;;;7.47;5.07;;;;;;;19.56;37.86;101958.56;4952257;28;113784;-73
2022/05/02 09:12:54;;;;;;;6.10;4.80;;;;;;;19.61;37.00;101956.44;4935320;28;123683;-74
2022/05/02 09:15:50;;;;;;;8.85;5.03;;;;;;;19.64;36.99;101958.06;4951853;28;124403;-74
2022/05/02 09:18:48;;;;;;;8.38;6.00;;;;;;;19.62;36.57;101962.69;4922549;28;113484;-74
2022/05/02 09:21:28;;;;;;;8.93;5.57;;;;;;;19.66;37.13;101950.75;4956426;28;113760;-73
2022/05/02 09:24:32;;;;;;;7.60;5.07;;;;;;;19.73;37.07;101949.44;4945186;28;124406;-74
2022/05/02 09:27:32;;;;;;;8.13;5.97;;;;;;;19.80;36.50;101944.53;4938273;28;122001;-74
2022/05/02 09:30:21;;;;;;;9.73;6.13;;;;;;;19.82;36.26;101942.59;4894411;28;114077;-74
2022/05/02 09:33:03;;;;;;;10.57;6.20;;;;;;;19.83;36.23;101944.28;4950754;28;115373;-74
2022/05/02 09:35:51;;;;;;;11.20;6.03;;;;;;;19.87;36.54;101942.25;4918042;28;122869;-74
2022/05/02 09:38:24;;;;;;;9.40;6.20;;;;;;;19.90;36.16;101945.63;4933939;28;123824;-74
2022/05/02 09:41:13;;;;;;;12.07;6.85;;;;;;;19.95;36.19;101943.50;4931613;28;114381;-74
2022/05/02 09:50:18;;;;;;;11.45;7.40;;;;;;;20.28;36.71;101933.22;4931691;28;123434;-74
2022/05/02 09:53:02;;;;;;;13.30;7.65;;;;;;;20.40;36.12;101933.25;4947287;28;113920;-74
2022/05/02 09:58:56;;;;;;;10.43;7.60;;;;;;;20.56;34.96;101926.78;4928137;28;124040;-74
2022/05/02 10:01:27;;;;;;;11.73;7.40;;;;;;;20.60;35.07;101933.72;4930253;28;124524;-74
2022/05/02 10:04:32;;;;;;;10.90;7.20;;;;;;;20.63;35.19;101929.97;4931764;28;113199;-73
2022/05/02 10:07:07;;;;;;;15.88;7.03;;;;;;;20.68;35.17;101930.47;4930950;28;113625;-73
2022/05/02 10:10:02;;;;;;;10.15;6.90;;;;;;;20.73;34.82;101923.78;4930172;28;123506;-73
2022/05/02 10:13:00;;;;;;;11.07;7.25;;;;;;;20.74;35.02;101925.53;4948070;28;122805;-74
2022/05/02 10:15:53;;;;;;;9.88;6.80;;;;;;;20.74;34.96;101924.69;4933366;28;114795;-73
2022/05/02 10:18:31;;;;;;;11.48;6.63;;;;;;;20.78;35.51;101927.03;4947754;28;113048;-73
2022/05/02 10:21:11;;;;;;;10.55;6.57;;;;;;;20.87;34.89;101919.25;4930830;28;123957;-73
2022/05/02 10:23:46;;;;;;;8.57;6.20;;;;;;;20.94;34.63;101920.53;4946342;28;123190;-74
2022/05/02 10:26:40;;;;;;;10.27;7.20;;;;;;;21.00;34.90;101912.00;4940959;28;115721;-72
2022/05/02 10:29:42;;;;;;;10.38;6.82;;;;;;;21.03;34.61;101919.88;4953776;28;114635;-72
2022/05/02 10:32:37;;;;;;;11.55;7.30;;;;;;;21.03;34.66;101909.09;4923152;28;123960;-73
2022/05/02 10:35:10;;;;;;;9.80;6.43;;;;;;;21.08;34.56;101912.34;4950160;28;123901;-73
2022/05/02 10:37:40;;;;;;;9.73;7.35;;;;;;;21.11;34.54;101906.69;4950789;28;114434;-73
2022/05/02 10:40:10;;;;;;;9.38;6.82;;;;;;;21.17;34.53;101906.28;4939906;28;112939;-73
2022/05/02 10:42:45;;;;;;;9.65;6.78;;;;;;;21.25;34.19;101910.22;4921392;28;122990;-73
2022/05/02 10:45:14;;;;;;;10.70;7.28;;;;;;;21.33;34.26;101905.16;4925405;28;123676;-73
2022/05/02 10:47:51;;;;;;;9.05;6.85;;;;;;;21.39;34.30;101893.91;4947954;28;113592;-73
2022/05/02 10:50:31;;;;;;;10.82;7.43;;;;;;;21.42;34.12;101893.69;4933699;28;114436;-73
2022/05/02 10:53:16;;;;;;;11.02;7.72;;;;;;;21.47;33.83;101888.81;4930909;28;123908;-73
2022/05/02 10:55:58;;;;;;;9.30;7.50;;;;;;;21.53;33.71;101888.41;4934399;28;123898;-72
2022/05/02 10:58:31;;;;;;;9.75;6.93;;;;;;;21.64;33.79;101881.31;4930330;28;116058;-73
2022/05/02 11:01:08;;;;;;;9.98;7.43;;;;;;;21.74;34.09;101882.38;4954943;28;113985;-73
2022/05/02 11:04:06;;;;;;;10.27;7.10;;;;;;;21.85;34.50;101885.09;4928798;28;123355;-72
2022/05/02 11:06:43;;;;;;;10.73;7.10;;;;;;;21.94;34.01;101889.78;4958319;28;123099;-72
2022/05/02 11:09:19;;;;;;;10.40;7.40;;;;;;;21.99;33.69;101880.47;4928382;28;112667;-72
2022/05/02 11:11:51;;;;;;;9.18;6.80;;;;;;;21.94;33.27;101881.69;4945126;28;114410;-72
2022/05/02 11:14:34;;;;;;;9.05;6.82;;;;;;;21.91;32.98;101868.44;4945034;28;123075;-73
2022/05/02 11:17:14;;;;;;;9.15;6.80;;;;;;;21.90;33.07;101872.09;4939993;28;123802;-75
2022/05/02 11:23:30;;;;;;;10.13;7.53;;;;;;;21.96;33.08;101860.84;4941583;28;114953;-72
2022/05/02 11:26:07;;;;;;;11.30;7.65;;;;;;;22.04;33.57;101867.47;4939257;28;123830;-72
2022/05/02 11:29:04;;;;;;;11.68;7.78;;;;;;;22.16;33.09;101855.75;4955201;28;124602;-73
2022/05/02 11:31:47;;;;;;;9.60;7.28;;;;;;;22.28;33.35;101849.44;4927183;28;114509;-73
2022/05/02 11:34:34;;;;;;;8.82;6.20;;;;;;;22.42;33.28;101855.56;4947335;28;112917;-73
2022/05/02 11:37:02;;;;;;;11.05;7.15;;;;;;;22.52;32.87;101848.44;4938643;28;123845;-72
2022/05/02 11:39:49;;;;;;;8.90;6.80;;;;;;;22.59;32.90;101846.13;4948313;28;123233;-73
2022/05/02 11:42:21;;;;;;;10.32;6.88;;;;;;;22.66;32.87;101842.81;4932393;28;114340;-73
2022/05/02 11:45:13;;;;;;;10.52;7.40;;;;;;;22.74;32.34;101851.13;4952165;28;113000;-74
2022/05/02 11:47:55;;;;;;;8.93;6.97;;;;;;;22.79;32.50;101847.19;4927917;28;124167;-74
2022/05/02 11:50:28;;;;;;;9.20;6.38;;;;;;;22.83;32.93;101854.06;4931668;28;97690;-73
2022/05/02 11:52:59;;;;;;;9.38;7.20;;;;;;;22.88;32.41;101841.06;4937244;28;114202;-73
2022/05/02 11:55:28;;;;;;;10.02;7.32;;;;;;;22.95;32.45;101847.69;4947637;28;113727;-73
2022/05/02 11:58:08;;;;;;;10.38;6.65;;;;;;;23.04;32.39;101846.13;4948186;28;123644;-73
2022/05/02 12:00:37;;;;;;;11.45;7.45;;;;;;;23.08;31.88;101845.72;4931818;28;123667;-72
2022/05/02 12:03:11;;;;;;;9.07;6.72;;;;;;;23.08;31.85;101851.13;4932600;28;113484;-73
2022/05/02 12:06:01;;;;;;;10.37;7.27;;;;;;;23.08;32.03;101837.63;4965259;28;114570;-73
2022/05/02 12:08:32;;;;;;;10.55;7.65;;;;;;;23.10;31.66;101841.03;4931935;28;123331;-73
2022/05/02 12:11:04;;;;;;;9.70;6.95;;;;;;;23.10;31.48;101835.63;4931082;28;123242;-72
2022/05/02 12:13:45;;;;;;;10.07;7.28;;;;;;;23.15;32.04;101831.69;4949351;28;115190;-73
2022/05/02 12:16:14;;;;;;;10.40;7.55;;;;;;;23.22;31.87;101832.91;4946212;28;114388;-73
2022/05/02 12:18:52;;;;;;;10.88;8.25;;;;;;;23.25;30.81;101835.38;4948642;28;124057;-72
2022/05/02 12:21:31;;;;;;;10.75;6.57;;;;;;;23.24;31.14;101836.34;4929267;28;123996;-72